createdAt,value
2018-12-10T00:02:08.902Z,94.20
2018-12-10T00:04:37.633Z,94.30
2018-12-10T00:07:05.994Z,94.30
2018-12-10T00:09:35.536Z,94.30
2018-12-10T00:12:03.909Z,94.40
2018-12-10T00:14:32.329Z,94.50
2018-12-10T00:17:02.231Z,94.50
2018-12-10T00:19:30.610Z,94.70
2018-12-10T00:21:59.034Z,94.60
2018-12-10T00:24:27.586Z,94.70
2018-12-10T00:26:55.946Z,94.80
2018-12-10T00:29:25.855Z,94.80
2018-12-10T00:31:55.157Z,94.70
2018-12-10T00:34:23.546Z,94.70
2018-12-10T00:36:51.910Z,94.70
2018-12-10T00:39:20.338Z,94.80
2018-12-10T00:41:49.891Z,94.40
2018-12-10T00:44:19.809Z,94.40
2018-12-10T00:46:49.367Z,94.30
2018-12-10T00:49:17.710Z,94.30
2018-12-10T00:51:46.056Z,94.40
2018-12-10T00:54:15.942Z,94.40
2018-12-10T00:56:44.306Z,94.50
2018-12-10T00:59:12.905Z,94.60
2018-12-10T01:01:41.367Z,94.50
2018-12-10T01:04:09.748Z,94.50
2018-12-10T01:06:39.817Z,94.60
2018-12-10T01:09:08.981Z,94.70
2018-12-10T01:11:37.327Z,94.60
2018-12-10T01:14:07.094Z,94.60
2018-12-10T01:16:35.443Z,94.60
2018-12-10T01:19:03.797Z,94.50
2018-12-10T01:21:32.152Z,94.50
2018-12-10T01:24:00.506Z,94.60
2018-12-10T01:26:29.097Z,94.60
2018-12-10T01:28:58.384Z,94.80
2018-12-10T01:31:27.884Z,94.60
2018-12-10T01:33:56.227Z,94.60
2018-12-10T01:36:24.575Z,94.70
2018-12-10T01:38:53.202Z,94.90
2018-12-10T01:41:22.214Z,94.60
2018-12-10T01:43:51.832Z,94.40
2018-12-10T01:46:21.129Z,94.50
2018-12-10T01:48:49.470Z,94.40
2018-12-10T01:51:17.821Z,94.40
2018-12-10T01:53:46.197Z,94.40
2018-12-10T01:56:14.549Z,94.40
2018-12-10T01:58:43.005Z,94.20
2018-12-10T02:01:11.449Z,94.20
2018-12-10T02:03:41.788Z,94.30
2018-12-10T02:06:10.214Z,94.30
2018-12-10T02:08:39.473Z,94.30
2018-12-10T02:11:07.833Z,94.30
2018-12-10T02:13:36.960Z,94.40
2018-12-10T02:16:05.321Z,94.40
2018-12-10T02:18:33.678Z,94.40
2018-12-10T02:21:02.037Z,94.40
2018-12-10T02:23:30.373Z,94.40
2018-12-10T02:25:59.714Z,94.30
2018-12-10T02:28:33.514Z,94.30
2018-12-10T02:31:02.998Z,94.10
2018-12-10T02:33:31.672Z,94.00
2018-12-10T02:36:00.019Z,94.10
2018-12-10T02:38:29.349Z,94.10
2018-12-10T02:40:58.739Z,94.20
2018-12-10T02:43:28.641Z,94.20
2018-12-10T02:45:58.557Z,94.30
2018-12-10T02:48:26.912Z,94.30
2018-12-10T02:50:55.251Z,94.30
2018-12-10T02:53:23.610Z,94.30
2018-12-10T02:55:52.074Z,94.40
2018-12-10T02:58:20.551Z,94.40
2018-12-10T03:00:49.714Z,94.50
2018-12-10T03:03:18.161Z,94.40
2018-12-10T03:05:46.525Z,94.40
2018-12-10T03:08:14.915Z,94.50
2018-12-10T03:10:44.169Z,94.50
2018-12-10T03:13:12.524Z,94.50
2018-12-10T03:15:40.852Z,94.50
2018-12-10T03:18:09.254Z,94.50
2018-12-10T03:20:37.596Z,94.40
2018-12-10T03:23:06.884Z,94.40
2018-12-10T03:25:35.238Z,94.50
2018-12-10T03:28:03.594Z,94.40
2018-12-10T03:30:33.420Z,94.30
2018-12-10T03:33:01.872Z,94.30
2018-12-10T03:35:31.334Z,94.30
2018-12-10T03:38:00.203Z,94.30
2018-12-10T03:40:31.546Z,94.20
2018-12-10T03:43:01.081Z,94.10
2018-12-10T03:45:29.422Z,94.30
2018-12-10T03:47:59.059Z,94.30
2018-12-10T03:50:27.405Z,94.10
2018-12-10T03:52:55.754Z,94.20
2018-12-10T03:55:24.302Z,94.00
2018-12-10T03:57:53.412Z,94.10
2018-12-10T04:00:21.755Z,94.10
2018-12-10T04:02:50.377Z,94.10
2018-12-10T04:05:18.738Z,94.10
2018-12-10T04:07:48.127Z,94.10
2018-12-10T04:10:16.473Z,94.10
2018-12-10T04:12:44.821Z,94.00
2018-12-10T04:15:13.181Z,94.10
2018-12-10T04:17:41.651Z,94.10
2018-12-10T04:20:11.415Z,94.10
2018-12-10T04:22:39.797Z,94.10
2018-12-10T04:25:08.266Z,94.10
2018-12-10T04:27:36.638Z,94.10
2018-12-10T04:30:05.229Z,94.00
2018-12-10T04:32:34.827Z,94.10
2018-12-10T04:35:03.298Z,94.10
2018-12-10T04:37:31.635Z,94.10
2018-12-10T04:40:01.709Z,94.10
2018-12-10T04:42:30.937Z,94.00
2018-12-10T04:45:00.006Z,94.00
2018-12-10T04:47:30.178Z,93.80
2018-12-10T04:49:58.521Z,93.40
2018-12-10T04:52:27.144Z,93.50
2018-12-10T04:54:55.514Z,93.70
2018-12-10T04:57:25.202Z,94.00
2018-12-10T04:59:53.551Z,94.30
2018-12-10T05:02:22.066Z,94.60
2018-12-10T05:04:51.485Z,94.70
2018-12-10T05:07:19.866Z,94.80
2018-12-10T05:09:48.225Z,94.80
2018-12-10T05:12:16.789Z,94.80
2018-12-10T05:14:45.155Z,94.80
2018-12-10T05:17:13.660Z,94.70
2018-12-10T05:19:43.250Z,94.70
2018-12-10T05:22:11.734Z,94.60
2018-12-10T05:24:40.090Z,94.60
2018-12-10T05:27:09.514Z,94.60
2018-12-10T05:29:37.869Z,94.50
2018-12-10T05:32:06.230Z,94.40
2018-12-10T05:34:34.581Z,94.40
2018-12-10T05:37:02.938Z,94.10
2018-12-10T05:39:32.422Z,94.10
2018-12-10T05:42:01.457Z,94.00
2018-12-10T05:44:31.407Z,94.10
2018-12-10T05:47:01.001Z,93.70
2018-12-10T05:49:29.363Z,93.70
2018-12-10T05:51:57.721Z,93.60
2018-12-10T05:54:27.497Z,93.60
2018-12-10T05:56:55.865Z,93.60
2018-12-10T05:59:24.202Z,93.50
2018-12-10T06:01:52.597Z,93.50
2018-12-10T06:04:21.522Z,93.50
2018-12-10T06:06:49.865Z,93.40
2018-12-10T06:09:18.211Z,93.30
2018-12-10T06:11:47.233Z,93.30
2018-12-10T06:14:15.902Z,93.20
2018-12-10T06:16:45.258Z,93.20
2018-12-10T06:19:13.601Z,93.20
2018-12-10T06:21:41.958Z,93.20
2018-12-10T06:24:11.447Z,93.10
2018-12-10T06:26:39.784Z,93.10
2018-12-10T06:29:08.164Z,93.00
2018-12-10T06:31:36.681Z,92.90
2018-12-10T06:34:05.043Z,92.90
2018-12-10T06:36:33.559Z,92.80
2018-12-10T06:39:03.417Z,92.80
2018-12-10T06:41:33.343Z,92.70
2018-12-10T06:44:02.932Z,92.70
2018-12-10T06:46:32.242Z,92.70
2018-12-10T06:49:00.846Z,92.60
2018-12-10T06:51:30.838Z,92.60
2018-12-10T06:53:59.222Z,92.70
2018-12-10T06:56:27.557Z,92.80
2018-12-10T06:58:55.958Z,92.70
2018-12-10T07:01:25.529Z,92.80
2018-12-10T07:03:54.117Z,92.90
2018-12-10T07:06:22.460Z,92.90
2018-12-10T07:08:50.889Z,93.30
2018-12-10T07:11:19.337Z,92.90
2018-12-10T07:13:47.861Z,92.90
2018-12-10T07:16:16.221Z,92.90
2018-12-10T07:18:44.602Z,92.90
2018-12-10T07:21:15.058Z,93.00
2018-12-10T07:23:43.460Z,93.00
2018-12-10T07:26:11.901Z,93.10
2018-12-10T07:28:40.294Z,93.10
2018-12-10T07:31:08.652Z,93.20
2018-12-10T07:33:37.105Z,93.00
2018-12-10T07:36:05.507Z,92.90
2018-12-10T07:38:34.920Z,92.90
2018-12-10T07:41:05.441Z,92.80
2018-12-10T07:43:34.450Z,92.70
2018-12-10T07:46:03.543Z,92.70
2018-12-10T07:48:33.237Z,92.60
2018-12-10T07:51:01.602Z,92.70
2018-12-10T07:53:29.966Z,92.70
2018-12-10T07:55:58.329Z,92.60
2018-12-10T07:58:26.685Z,92.60
2018-12-10T08:00:55.105Z,92.70
2018-12-10T08:03:23.698Z,92.70
2018-12-10T08:05:52.224Z,92.70
2018-12-10T08:08:20.565Z,92.70
2018-12-10T08:10:48.913Z,92.70
2018-12-10T08:13:18.417Z,93.00
2018-12-10T08:15:48.175Z,92.90
2018-12-10T08:18:16.589Z,93.00
2018-12-10T08:20:44.950Z,93.20
2018-12-10T08:23:13.357Z,93.50
2018-12-10T08:25:41.706Z,93.40
2018-12-10T08:28:10.795Z,92.40
2018-12-10T08:30:39.228Z,90.70
2018-12-10T08:33:07.585Z,89.30
2018-12-10T08:35:40.800Z,88.20
2018-12-10T08:38:07.054Z,86.60
2018-12-10T08:40:36.822Z,86.00
2018-12-10T08:43:06.104Z,85.80
2018-12-10T08:45:34.496Z,86.10
2018-12-10T08:48:03.853Z,85.10
2018-12-10T08:50:32.223Z,85.80
2018-12-10T08:53:00.569Z,85.60
2018-12-10T08:55:29.006Z,85.80
2018-12-10T08:57:57.375Z,86.20
2018-12-10T09:00:26.551Z,86.10
2018-12-10T09:02:54.928Z,87.00
2018-12-10T09:05:24.279Z,87.30
2018-12-10T09:07:52.905Z,87.70
2018-12-10T09:10:21.257Z,87.90
2018-12-10T09:12:50.612Z,88.10
2018-12-10T09:15:18.993Z,87.70
2018-12-10T09:17:47.568Z,87.90
2018-12-10T09:20:15.941Z,88.00
2018-12-10T09:22:44.637Z,88.20
2018-12-10T09:25:13.177Z,87.80
2018-12-10T09:27:41.557Z,88.10
2018-12-10T09:30:12.791Z,88.30
2018-12-10T09:32:41.163Z,88.20
2018-12-10T09:35:09.789Z,88.30
2018-12-10T09:37:38.778Z,88.30
2018-12-10T09:40:09.065Z,87.60
2018-12-10T09:42:38.575Z,86.10
2018-12-10T09:45:07.720Z,85.30
2018-12-10T09:47:37.233Z,86.90
2018-12-10T09:50:05.846Z,87.30
2018-12-10T09:52:34.194Z,87.00
2018-12-10T09:55:02.701Z,86.90
2018-12-10T09:57:31.044Z,86.40
2018-12-10T09:59:59.457Z,86.70
2018-12-10T10:02:27.838Z,87.20
2018-12-10T10:04:56.182Z,87.10
2018-12-10T10:07:28.505Z,86.80
2018-12-10T10:09:56.419Z,86.80
2018-12-10T10:12:24.845Z,86.60
2018-12-10T10:14:53.854Z,86.40
2018-12-10T10:17:22.401Z,86.90
2018-12-10T10:19:50.830Z,86.90
2018-12-10T10:22:19.446Z,86.80
2018-12-10T10:24:47.814Z,86.60
2018-12-10T10:27:16.186Z,86.30
2018-12-10T10:29:45.421Z,86.50
2018-12-10T10:32:13.761Z,86.90
2018-12-10T10:34:42.102Z,86.80
2018-12-10T10:37:10.455Z,86.80
2018-12-10T10:39:39.737Z,85.90
2018-12-10T10:42:08.905Z,85.90
2018-12-10T10:44:37.753Z,85.80
2018-12-10T10:47:07.060Z,86.40
2018-12-10T10:49:35.385Z,86.60
2018-12-10T10:52:03.754Z,86.30
2018-12-10T10:54:32.145Z,86.20
2018-12-10T10:57:00.546Z,85.70
2018-12-10T10:59:29.033Z,86.00
2018-12-10T11:02:06.383Z,86.40
2018-12-10T11:04:37.631Z,86.60
2018-12-10T11:07:06.481Z,86.20
2018-12-10T11:09:34.842Z,85.90
2018-12-10T11:12:03.844Z,85.70
2018-12-10T11:14:32.239Z,84.20
2018-12-10T11:17:00.721Z,85.60
2018-12-10T11:19:29.240Z,85.70
2018-12-10T11:21:57.629Z,85.80
2018-12-10T11:24:26.117Z,85.90
2018-12-10T11:26:54.509Z,85.90
2018-12-10T11:29:22.901Z,85.90
2018-12-10T11:31:51.333Z,86.10
2018-12-10T11:34:19.762Z,86.00
2018-12-10T11:37:51.258Z,86.30
2018-12-10T11:40:20.694Z,86.30
2018-12-10T11:42:49.842Z,86.40
2018-12-10T11:45:18.229Z,87.30
2018-12-10T11:47:47.667Z,86.70
2018-12-10T11:50:16.064Z,86.70
2018-12-10T11:52:45.167Z,86.90
2018-12-10T11:55:13.588Z,86.70
2018-12-10T11:57:41.989Z,88.80
2018-12-10T12:00:11.183Z,89.20
2018-12-10T12:02:40.797Z,89.80
2018-12-10T12:05:09.159Z,89.40
2018-12-10T12:07:38.772Z,89.30
2018-12-10T12:10:08.388Z,89.50
2018-12-10T12:12:36.745Z,89.80
2018-12-10T12:15:06.380Z,89.40
2018-12-10T12:17:34.733Z,89.80
2018-12-10T12:20:03.237Z,89.70
2018-12-10T12:22:31.692Z,90.00
2018-12-10T12:25:00.046Z,90.20
2018-12-10T12:27:28.425Z,90.10
2018-12-10T12:29:56.796Z,90.00
2018-12-10T12:32:25.393Z,89.80
2018-12-10T12:34:53.739Z,89.10
2018-12-10T12:37:22.798Z,79.70
2018-12-10T12:39:52.779Z,75.00
2018-12-10T12:42:21.138Z,77.70
2018-12-10T12:44:50.275Z,76.60
2018-12-10T12:47:19.256Z,79.00
2018-12-10T12:49:47.632Z,79.50
2018-12-10T12:52:15.987Z,81.60
2018-12-10T12:54:44.369Z,81.40
2018-12-10T12:57:13.425Z,80.80
2018-12-10T12:59:41.817Z,84.30
2018-12-10T13:02:10.257Z,82.80
2018-12-10T13:04:39.294Z,85.10
2018-12-10T13:07:07.788Z,83.80
2018-12-10T13:09:36.549Z,83.80
2018-12-10T13:12:04.993Z,84.40
2018-12-10T13:14:33.407Z,83.40
2018-12-10T13:17:01.914Z,85.10
2018-12-10T13:19:30.326Z,84.20
2018-12-10T13:21:58.678Z,84.20
2018-12-10T13:24:27.062Z,82.10
2018-12-10T13:26:55.531Z,86.10
2018-12-10T13:29:31.168Z,83.60
2018-12-10T13:31:55.010Z,82.30
2018-12-10T13:34:23.426Z,81.50
2018-12-10T13:36:51.797Z,79.70
2018-12-10T13:39:21.375Z,80.00
2018-12-10T13:41:50.779Z,79.60
2018-12-10T13:44:19.706Z,84.40
2018-12-10T13:46:48.931Z,90.00
2018-12-10T13:49:17.265Z,90.20
2018-12-10T13:51:45.642Z,90.30
2018-12-10T13:54:14.714Z,88.50
2018-12-10T13:56:43.177Z,87.30
2018-12-10T13:59:11.551Z,86.30
2018-12-10T14:01:39.981Z,85.70
2018-12-10T14:04:14.064Z,85.50
2018-12-10T14:06:42.433Z,85.40
2018-12-10T14:09:10.781Z,95.10
2018-12-10T14:11:39.145Z,94.60
2018-12-10T14:14:07.683Z,94.10
2018-12-10T14:16:36.193Z,93.70
2018-12-10T14:19:05.864Z,93.40
2018-12-10T14:21:34.370Z,93.30
2018-12-10T14:24:02.730Z,92.60
2018-12-10T14:26:31.139Z,92.60
2018-12-10T14:28:59.974Z,92.20
2018-12-10T14:31:28.306Z,92.20
2018-12-10T14:34:00.908Z,91.40
2018-12-10T14:36:30.704Z,90.60
2018-12-10T14:39:00.151Z,90.10
2018-12-10T14:41:29.650Z,89.90
2018-12-10T14:43:58.502Z,89.60
2018-12-10T14:46:27.539Z,90.00
2018-12-10T14:48:55.988Z,89.80
2018-12-10T14:51:25.397Z,89.80
2018-12-10T14:53:53.808Z,89.40
2018-12-10T14:56:22.167Z,90.60
2018-12-10T14:58:50.565Z,90.20
2018-12-10T15:01:18.937Z,90.30
2018-12-10T15:03:47.709Z,90.60
2018-12-10T15:06:16.148Z,90.80
2018-12-10T15:08:44.509Z,91.30
2018-12-10T15:11:12.954Z,91.50
2018-12-10T15:13:41.374Z,91.50
2018-12-10T15:16:10.117Z,92.40
2018-12-10T15:18:38.486Z,93.20
2018-12-10T15:21:06.879Z,93.30
2018-12-10T15:23:35.226Z,93.70
2018-12-10T15:26:03.649Z,93.00
2018-12-10T15:28:32.832Z,92.30
2018-12-10T15:31:01.235Z,92.20
2018-12-10T15:33:29.799Z,92.70
2018-12-10T15:35:58.227Z,92.70
2018-12-10T15:38:27.661Z,92.70
2018-12-10T15:40:57.162Z,92.70
2018-12-10T15:43:26.133Z,93.10
2018-12-10T15:45:55.689Z,93.00
2018-12-10T15:48:24.105Z,93.10
2018-12-10T15:50:52.468Z,93.20
2018-12-10T15:53:21.046Z,93.00
2018-12-10T15:55:49.406Z,93.00
2018-12-10T15:58:18.025Z,93.00
2018-12-10T16:00:46.401Z,92.50
2018-12-10T16:03:14.946Z,93.00
2018-12-10T16:05:44.288Z,92.90
2018-12-10T16:08:12.637Z,92.70
2018-12-10T16:10:40.984Z,92.60
2018-12-10T16:13:09.377Z,92.60
2018-12-10T16:15:37.793Z,92.70
2018-12-10T16:18:06.285Z,92.70
2018-12-10T16:20:34.792Z,92.70
2018-12-10T16:23:03.130Z,92.50
2018-12-10T16:25:31.502Z,92.00
2018-12-10T16:28:00.091Z,92.20
2018-12-10T16:30:29.445Z,92.30
2018-12-10T16:32:58.110Z,92.40
2018-12-10T16:35:26.528Z,92.50
2018-12-10T16:37:55.246Z,91.90
2018-12-10T16:40:25.355Z,91.70
2018-12-10T16:42:54.702Z,91.90
2018-12-10T16:45:23.044Z,91.90
2018-12-10T16:47:52.392Z,92.00
2018-12-10T16:50:20.741Z,92.20
2018-12-10T16:52:50.758Z,91.70
2018-12-10T16:55:20.433Z,91.30
2018-12-10T16:57:48.829Z,91.20
2018-12-10T17:00:17.231Z,90.90
2018-12-10T17:02:45.674Z,90.30
2018-12-10T17:05:14.102Z,89.40
2018-12-10T17:07:43.352Z,88.80
2018-12-10T17:10:12.095Z,87.60
2018-12-10T17:12:40.656Z,87.40
2018-12-10T17:15:10.853Z,86.80
2018-12-10T17:17:39.230Z,86.40
2018-12-10T17:20:07.936Z,86.30
2018-12-10T17:22:36.309Z,86.50
2018-12-10T17:25:05.272Z,86.10
2018-12-10T17:27:34.025Z,85.90
2018-12-10T17:30:02.405Z,85.90
2018-12-10T17:32:30.745Z,85.80
2018-12-10T17:34:59.089Z,85.70
2018-12-10T17:37:28.396Z,85.00
2018-12-10T17:39:58.108Z,85.20
2018-12-10T17:42:26.457Z,85.60
2018-12-10T17:44:56.275Z,85.80
2018-12-10T17:47:25.890Z,85.30
2018-12-10T17:49:54.651Z,85.30
2018-12-10T17:52:24.070Z,85.10
2018-12-10T17:54:52.629Z,85.70
2018-12-10T17:57:20.967Z,85.40
2018-12-10T17:59:49.605Z,85.20
2018-12-10T18:02:17.951Z,85.30
2018-12-10T18:04:46.738Z,85.70
2018-12-10T18:07:15.106Z,85.90
2018-12-10T18:09:43.450Z,85.50
2018-12-10T18:12:11.798Z,85.50
2018-12-10T18:14:40.270Z,85.60
2018-12-10T18:17:09.213Z,86.10
2018-12-10T18:19:37.558Z,86.00
2018-12-10T18:22:05.942Z,85.90
2018-12-10T18:24:34.286Z,86.50
2018-12-10T18:27:02.705Z,87.30
2018-12-10T18:29:31.453Z,87.70
2018-12-10T18:31:59.821Z,87.80
2018-12-10T18:34:28.263Z,88.00
2018-12-10T18:36:57.745Z,88.40
2018-12-10T18:39:26.542Z,88.30
2018-12-10T18:41:56.130Z,88.00
2018-12-10T18:44:25.286Z,88.10
2018-12-10T18:46:54.489Z,88.20
2018-12-10T18:49:23.525Z,88.50
2018-12-10T18:51:51.890Z,88.00
2018-12-10T18:54:20.958Z,87.80
2018-12-10T18:56:49.302Z,89.00
2018-12-10T18:59:17.650Z,88.20
2018-12-10T19:01:46.103Z,88.00
2018-12-10T19:04:14.971Z,87.90
2018-12-10T19:06:43.410Z,87.80
2018-12-10T19:09:12.379Z,87.70
2018-12-10T19:11:41.128Z,88.00
2018-12-10T19:14:09.492Z,88.10
2018-12-10T19:16:37.901Z,87.90
2018-12-10T19:19:06.562Z,87.80
2018-12-10T19:21:34.987Z,87.90
2018-12-10T19:24:03.536Z,88.10
2018-12-10T19:26:31.948Z,88.00
2018-12-10T19:29:00.293Z,88.30
2018-12-10T19:31:29.930Z,88.40
2018-12-10T19:34:03.436Z,88.70
2018-12-10T19:36:28.650Z,88.80
2018-12-10T19:38:58.208Z,89.80
2018-12-10T19:41:27.431Z,90.30
2018-12-10T19:43:57.066Z,90.30
2018-12-10T19:46:26.214Z,90.20
2018-12-10T19:48:55.934Z,90.10
2018-12-10T19:51:24.648Z,90.10
2018-12-10T19:53:52.988Z,90.20
2018-12-10T19:56:21.765Z,90.30
2018-12-10T19:58:51.097Z,90.30
2018-12-10T20:01:19.880Z,90.10
2018-12-10T20:03:48.295Z,90.50
2018-12-10T20:06:20.953Z,90.60
2018-12-10T20:08:49.353Z,90.50
2018-12-10T20:11:17.697Z,90.30
2018-12-10T20:13:46.605Z,90.30
2018-12-10T20:16:14.957Z,91.50
2018-12-10T20:18:43.311Z,92.40
2018-12-10T20:21:11.717Z,92.90
2018-12-10T20:23:40.105Z,93.10
2018-12-10T20:26:08.865Z,93.40
2018-12-10T20:28:38.048Z,93.10
2018-12-10T20:31:06.418Z,93.40
2018-12-10T20:33:35.547Z,93.20
2018-12-10T20:36:03.943Z,93.20
2018-12-10T20:38:33.237Z,94.00
2018-12-10T20:41:02.723Z,94.00
2018-12-10T20:43:33.060Z,93.60
2018-12-10T20:46:03.165Z,93.80
2018-12-10T20:48:33.088Z,93.90
2018-12-10T20:51:01.457Z,94.50
2018-12-10T20:53:29.798Z,94.30
2018-12-10T20:55:58.173Z,93.50
2018-12-10T20:58:26.537Z,93.50
2018-12-10T21:00:54.978Z,93.40
2018-12-10T21:03:23.665Z,93.60
2018-12-10T21:05:57.364Z,93.70
2018-12-10T21:08:26.550Z,93.50
2018-12-10T21:10:55.014Z,93.00
2018-12-10T21:13:23.390Z,92.80
2018-12-10T21:15:51.773Z,92.70
2018-12-10T21:18:20.135Z,92.90
2018-12-10T21:20:48.755Z,93.20
2018-12-10T21:23:17.463Z,93.00
2018-12-10T21:25:46.738Z,92.80
2018-12-10T21:28:16.470Z,92.70
2018-12-10T21:30:45.029Z,92.60
2018-12-10T21:33:13.374Z,92.70
2018-12-10T21:35:41.736Z,93.10
2018-12-10T21:38:11.036Z,93.00
2018-12-10T21:40:40.993Z,92.60
2018-12-10T21:43:11.508Z,92.30
2018-12-10T21:45:39.882Z,92.70
2018-12-10T21:48:09.464Z,92.60
2018-12-10T21:50:37.814Z,92.90
2018-12-10T21:53:06.154Z,93.00
2018-12-10T21:55:34.506Z,92.50
2018-12-10T21:58:02.882Z,93.10
2018-12-10T22:00:31.830Z,92.20
2018-12-10T22:03:00.201Z,92.60
2018-12-10T22:05:28.543Z,92.80
2018-12-10T22:07:57.083Z,93.00
2018-12-10T22:10:25.505Z,92.20
2018-12-10T22:12:54.053Z,92.10
2018-12-10T22:15:22.406Z,92.30
2018-12-10T22:17:51.831Z,92.60
2018-12-10T22:20:21.677Z,92.80
2018-12-10T22:22:50.230Z,93.10
2018-12-10T22:25:19.848Z,93.40
2018-12-10T22:27:48.259Z,93.50
2018-12-10T22:30:16.646Z,93.70
2018-12-10T22:32:45.101Z,93.90
2018-12-10T22:35:13.608Z,93.80
2018-12-10T22:37:42.031Z,93.80
2018-12-10T22:40:11.873Z,93.70
2018-12-10T22:42:41.693Z,93.90
2018-12-10T22:45:10.196Z,93.80
2018-12-10T22:47:39.641Z,93.40
2018-12-10T22:50:07.973Z,93.50
2018-12-10T22:52:37.605Z,93.20
2018-12-10T22:55:06.695Z,93.40
2018-12-10T22:57:35.050Z,93.60
2018-12-10T23:00:04.205Z,93.50
2018-12-10T23:02:32.906Z,93.50
2018-12-10T23:05:01.249Z,93.60
2018-12-10T23:07:29.774Z,93.60
2018-12-10T23:09:58.176Z,93.70
2018-12-10T23:12:26.797Z,93.80
2018-12-10T23:14:55.150Z,93.90
2018-12-10T23:17:24.611Z,93.80
2018-12-10T23:19:52.959Z,93.90
2018-12-10T23:22:22.451Z,93.90
2018-12-10T23:24:50.799Z,93.80
2018-12-10T23:27:19.164Z,93.70
2018-12-10T23:29:47.579Z,93.50
2018-12-10T23:32:15.914Z,93.50
2018-12-10T23:34:44.637Z,93.80
2018-12-10T23:37:14.182Z,93.80
2018-12-10T23:39:43.517Z,93.80
2018-12-10T23:42:12.593Z,93.80
2018-12-10T23:44:48.029Z,93.70
2018-12-10T23:47:17.534Z,93.80
2018-12-10T23:49:47.177Z,93.90
2018-12-10T23:52:15.554Z,93.90
2018-12-10T23:54:43.909Z,93.90
2018-12-10T23:57:12.291Z,93.80
2018-12-10T23:59:41.260Z,93.80
